VH314 YELR-YSSY
Flight info
| Callsign | VH314 |
|---|---|
| Flight time | N/A |
| Altitude | 5000 |
| Route | BOREE YSSY DCT |
| Aircraft | BE86/L-V/N |
Departure
| Time | N/A |
|---|---|
| Airport | YELR |
Arrival
| Time | 2026-05-06 08:29 |
|---|---|
| Airport | Sydney Kingsford Smith International Airport (YSSY) |
| Time | Latitude | Longitude | Altitude | Speed | Heading |
|---|---|---|---|---|---|
| 2026-05-06 08:02 | -32.93293 | 151.63847 | 2288 ft | 195 kts | 194° |
| 2026-05-06 08:02 | -32.93688 | 151.63739 | 2480 ft | 187 kts | 192° |
| 2026-05-06 08:02 | -32.95284 | 151.63365 | 2594 ft | 200 kts | 191° |
| 2026-05-06 08:03 | -32.96628 | 151.63037 | 2852 ft | 197 kts | 194° |
| 2026-05-06 08:03 | -32.97988 | 151.62718 | 3064 ft | 197 kts | 191° |
| 2026-05-06 08:03 | -32.99293 | 151.62397 | 3436 ft | 191 kts | 192° |
| 2026-05-06 08:03 | -33.00597 | 151.62032 | 3541 ft | 197 kts | 198° |
| 2026-05-06 08:04 | -33.01958 | 151.61535 | 3479 ft | 206 kts | 199° |
| 2026-05-06 08:04 | -33.03333 | 151.61017 | 3357 ft | 208 kts | 202° |
| 2026-05-06 08:04 | -33.04612 | 151.60238 | 3357 ft | 206 kts | 210° |
| 2026-05-06 08:04 | -33.05858 | 151.59432 | 3477 ft | 202 kts | 211° |
| 2026-05-06 08:05 | -33.07032 | 151.58550 | 3618 ft | 199 kts | 218° |
| 2026-05-06 08:05 | -33.08140 | 151.57535 | 3633 ft | 203 kts | 211° |
| 2026-05-06 08:05 | -33.09468 | 151.56896 | 3665 ft | 204 kts | 198° |
| 2026-05-06 08:05 | -33.10819 | 151.56478 | 3733 ft | 203 kts | 195° |
| 2026-05-06 08:06 | -33.12185 | 151.56148 | 3080 ft | 0 kts | 191° |
| 2026-05-06 08:06 | -32.88064 | 151.67431 | 7 ft | 0 kts | 217° |
| 2026-05-06 08:08 | -32.88087 | 151.67410 | 9 ft | 0 kts | 217° |
| 2026-05-06 08:10 | -33.01734 | 151.59578 | 2463 ft | 4239 kts | 200° |
| 2026-05-06 08:10 | -33.30303 | 151.47359 | 2466 ft | 4428 kts | 200° |
| 2026-05-06 08:10 | -33.48514 | 151.39548 | 2608 ft | 154 kts | 202° |
| 2026-05-06 08:11 | -33.49562 | 151.39065 | 2443 ft | 171 kts | 204° |
| 2026-05-06 08:11 | -33.50588 | 151.38326 | 2414 ft | 164 kts | 219° |
| 2026-05-06 08:11 | -33.51378 | 151.37431 | 2704 ft | 153 kts | 232° |
| 2026-05-06 08:11 | -33.51909 | 151.36392 | 2888 ft | 149 kts | 255° |
| 2026-05-06 08:12 | -33.52185 | 151.35138 | 2887 ft | 150 kts | 257° |
| 2026-05-06 08:12 | -33.52653 | 151.33977 | 2685 ft | 154 kts | 233° |
| 2026-05-06 08:12 | -33.53364 | 151.33162 | 2766 ft | 140 kts | 219° |
| 2026-05-06 08:12 | -33.54216 | 151.32551 | 2503 ft | 151 kts | 208° |
| 2026-05-06 08:13 | -33.55155 | 151.32023 | 2371 ft | 149 kts | 206° |
| 2026-05-06 08:13 | -33.56069 | 151.31455 | 2284 ft | 148 kts | 213° |
| 2026-05-06 08:13 | -33.56857 | 151.30689 | 2134 ft | 148 kts | 229° |
| 2026-05-06 08:13 | -33.57432 | 151.29655 | 1983 ft | 152 kts | 247° |
| 2026-05-06 08:14 | -33.57785 | 151.28495 | 1969 ft | 144 kts | 259° |
| 2026-05-06 08:14 | -33.57849 | 151.27292 | 1774 ft | 148 kts | 278° |
| 2026-05-06 08:14 | -33.57572 | 151.26105 | 1602 ft | 145 kts | 300° |
| 2026-05-06 08:14 | -33.56962 | 151.25167 | 1469 ft | 143 kts | 323° |
| 2026-05-06 08:15 | -33.56189 | 151.24449 | 1302 ft | 149 kts | 296° |
| 2026-05-06 08:15 | -33.55973 | 151.23237 | 1376 ft | 144 kts | 273° |
| 2026-05-06 08:15 | -33.56124 | 151.22080 | 1546 ft | 143 kts | 250° |
| 2026-05-06 08:15 | -33.56719 | 151.21110 | 1482 ft | 151 kts | 218° |
| 2026-05-06 08:16 | -33.57640 | 151.20561 | 1617 ft | 145 kts | 196° |
| 2026-05-06 08:16 | -33.58636 | 151.20424 | 1737 ft | 145 kts | 176° |
| 2026-05-06 08:16 | -33.59657 | 151.20460 | 1748 ft | 148 kts | 174° |
| 2026-05-06 08:16 | -33.60659 | 151.20629 | 1879 ft | 144 kts | 166° |
| 2026-05-06 08:17 | -33.61618 | 151.20983 | 1934 ft | 146 kts | 157° |
| 2026-05-06 08:17 | -33.62725 | 151.21246 | 1361 ft | 173 kts | 186° |
| 2026-05-06 08:17 | -33.63869 | 151.20982 | 1156 ft | 169 kts | 191° |
| 2026-05-06 08:17 | -33.65037 | 151.20771 | 1003 ft | 166 kts | 188° |
| 2026-05-06 08:18 | -33.66155 | 151.20562 | 978 ft | 159 kts | 188° |
| 2026-05-06 08:18 | -33.67243 | 151.20323 | 891 ft | 159 kts | 190° |
| 2026-05-06 08:18 | -33.68342 | 151.20054 | 769 ft | 160 kts | 189° |
| 2026-05-06 08:18 | -33.69425 | 151.19790 | 746 ft | 156 kts | 188° |
| 2026-05-06 08:19 | -33.70488 | 151.19583 | 737 ft | 155 kts | 188° |
| 2026-05-06 08:19 | -33.71527 | 151.19444 | 801 ft | 153 kts | 183° |
| 2026-05-06 08:19 | -33.72634 | 151.19504 | 747 ft | 167 kts | 173° |
| 2026-05-06 08:19 | -33.73771 | 151.19697 | 942 ft | 158 kts | 171° |
| 2026-05-06 08:20 | -33.74860 | 151.19921 | 1280 ft | 151 kts | 167° |
| 2026-05-06 08:20 | -33.75883 | 151.20164 | 1586 ft | 151 kts | 168° |
| 2026-05-06 08:20 | -33.76907 | 151.20401 | 1975 ft | 146 kts | 168° |
| 2026-05-06 08:20 | -33.77928 | 151.20673 | 2056 ft | 164 kts | 170° |
| 2026-05-06 08:21 | -33.78938 | 151.20158 | 2142 ft | 162 kts | 226° |
| 2026-05-06 08:21 | -33.79696 | 151.19171 | 2446 ft | 153 kts | 228° |
| 2026-05-06 08:21 | -33.80692 | 151.18631 | 2483 ft | 171 kts | 192° |
| 2026-05-06 08:21 | -33.81951 | 151.18494 | 2140 ft | 185 kts | 177° |
| 2026-05-06 08:22 | -33.83019 | 151.18088 | 1989 ft | 151 kts | 243° |
| 2026-05-06 08:22 | -33.83571 | 151.17072 | 1885 ft | 145 kts | 234° |
| 2026-05-06 08:22 | -33.84266 | 151.16165 | 1840 ft | 149 kts | 224° |
| 2026-05-06 08:22 | -33.85060 | 151.15429 | 1944 ft | 144 kts | 210° |
| 2026-05-06 08:23 | -33.86029 | 151.15168 | 1906 ft | 150 kts | 167° |
| 2026-05-06 08:23 | -33.86963 | 151.15617 | 1917 ft | 144 kts | 149° |
| 2026-05-06 08:23 | -33.87811 | 151.16234 | 1741 ft | 139 kts | 151° |
| 2026-05-06 08:23 | -33.88686 | 151.16776 | 1249 ft | 143 kts | 148° |
| 2026-05-06 08:24 | -33.89528 | 151.17382 | 1002 ft | 139 kts | 146° |
| 2026-05-06 08:24 | -33.90400 | 151.17822 | 837 ft | 137 kts | 167° |
| 2026-05-06 08:24 | -33.91372 | 151.18097 | 698 ft | 147 kts | 165° |
| 2026-05-06 08:24 | -33.92391 | 151.18301 | 541 ft | 151 kts | 170° |
| 2026-05-06 08:25 | -33.93418 | 151.18497 | 585 ft | 146 kts | 168° |
| 2026-05-06 08:25 | -33.94487 | 151.18710 | 197 ft | 151 kts | 169° |
| 2026-05-06 08:25 | -33.95462 | 151.18964 | 102 ft | 141 kts | 166° |
| 2026-05-06 08:25 | -33.96367 | 151.19207 | 16 ft | 119 kts | 164° |
| 2026-05-06 08:26 | -33.97262 | 151.19455 | 443 ft | 144 kts | 165° |
| 2026-05-06 08:26 | -33.98318 | 151.19664 | 985 ft | 166 kts | 169° |
| 2026-05-06 08:26 | -33.99438 | 151.20211 | 1058 ft | 182 kts | 112° |
| 2026-05-06 08:26 | -33.99081 | 151.21424 | 1541 ft | 165 kts | 19° |
| 2026-05-06 08:27 | -33.97932 | 151.21755 | 1824 ft | 177 kts | 13° |
| 2026-05-06 08:27 | -33.96683 | 151.22258 | 1671 ft | 195 kts | 22° |
| 2026-05-06 08:27 | -33.95521 | 151.22801 | 980 ft | 168 kts | 15° |
| 2026-05-06 08:27 | -33.94474 | 151.22988 | 676 ft | 150 kts | 3° |
| 2026-05-06 08:28 | -33.93576 | 151.22621 | 524 ft | 141 kts | 300° |
| 2026-05-06 08:28 | -33.93439 | 151.21441 | 264 ft | 139 kts | 272° |
| 2026-05-06 08:28 | -33.93539 | 151.20464 | 198 ft | 105 kts | 260° |
| 2026-05-06 08:28 | -33.93620 | 151.19912 | 125 ft | 99 kts | 260° |
| 2026-05-06 08:29 | -33.93797 | 151.18873 | 36 ft | 92 kts | 258° |
| 2026-05-06 08:29 | -33.93905 | 151.18379 | 23 ft | 84 kts | 260° |
| 2026-05-06 08:29 | -33.94009 | 151.17901 | 17 ft | 19 kts | 250° |
| 2026-05-06 08:29 | -33.94013 | 151.17817 | 17 ft | 7 kts | 333° |
| 2026-05-06 08:30 | -33.93931 | 151.17787 | 16 ft | 15 kts | 352° |
| 2026-05-06 08:30 | -33.93839 | 151.17735 | 14 ft | 14 kts | 331° |
| 2026-05-06 08:30 | -33.93764 | 151.17690 | 15 ft | 10 kts | 342° |
| 2026-05-06 08:30 | -33.93718 | 151.17676 | 18 ft | 3 kts | 343° |
| 2026-05-06 08:31 | -33.93696 | 151.17665 | 21 ft | 12 kts | 335° |
| 2026-05-06 08:31 | -33.93628 | 151.17624 | 23 ft | 10 kts | 342° |
| 2026-05-06 08:31 | -33.93568 | 151.17618 | 24 ft | 7 kts | 351° |
| 2026-05-06 08:31 | -33.93525 | 151.17613 | 24 ft | 5 kts | 358° |
| 2026-05-06 08:32 | -33.93494 | 151.17613 | 25 ft | 4 kts | 0° |
| 2026-05-06 08:32 | -33.93471 | 151.17613 | 26 ft | 3 kts | 0° |
| 2026-05-06 08:32 | -33.93465 | 151.17613 | 25 ft | 0 kts | 360° |